createdAt,value
2018-11-06T00:00:25.231Z,15.60
2018-11-06T00:05:43.752Z,15.67
2018-11-06T00:11:02.340Z,15.73
2018-11-06T00:16:20.838Z,15.27
2018-11-06T00:21:39.426Z,16.17
2018-11-06T00:26:57.900Z,15.30
2018-11-06T00:32:16.411Z,16.00
2018-11-06T00:37:34.951Z,15.65
2018-11-06T00:42:53.695Z,16.83
2018-11-06T00:48:12.325Z,16.47
2018-11-06T00:53:30.842Z,15.77
2018-11-06T00:58:49.377Z,16.10
2018-11-06T01:04:09.304Z,15.40
2018-11-06T01:09:27.863Z,15.63
2018-11-06T01:14:46.384Z,15.60
2018-11-06T01:20:08.323Z,15.93
2018-11-06T01:25:26.782Z,16.80
2018-11-06T01:30:45.343Z,16.03
2018-11-06T01:36:03.880Z,17.00
2018-11-06T01:41:22.524Z,15.37
2018-11-06T01:46:41.005Z,15.90
2018-11-06T01:51:59.510Z,16.10
2018-11-06T01:57:18.028Z,15.93
2018-11-06T02:02:36.845Z,15.40
2018-11-06T02:07:55.366Z,15.13
2018-11-06T02:13:13.902Z,15.70
2018-11-06T02:18:32.392Z,15.23
2018-11-06T02:23:50.980Z,15.13
2018-11-06T02:29:09.528Z,15.10
2018-11-06T02:34:28.071Z,15.53
2018-11-06T02:39:46.570Z,16.27
2018-11-06T02:45:06.439Z,16.42
2018-11-06T02:50:24.954Z,15.20
2018-11-06T02:55:43.489Z,15.97
2018-11-06T03:01:02.006Z,14.73
2018-11-06T03:06:20.475Z,16.03
2018-11-06T03:11:39.004Z,15.77
2018-11-06T03:16:57.586Z,17.17
2018-11-06T03:22:16.129Z,17.03
2018-11-06T03:27:34.888Z,15.33
2018-11-06T03:32:53.457Z,15.30
2018-11-06T03:38:11.950Z,16.67
2018-11-06T03:43:30.518Z,16.67
2018-11-06T03:48:49.058Z,15.85
2018-11-06T03:54:07.601Z,14.90
2018-11-06T03:59:26.135Z,15.07
2018-11-06T04:04:44.741Z,14.17
2018-11-06T04:10:03.579Z,13.00
2018-11-06T04:15:22.142Z,15.07
2018-11-06T04:20:40.678Z,14.67
2018-11-06T04:25:59.263Z,13.57
2018-11-06T04:31:17.863Z,13.47
2018-11-06T04:36:36.372Z,13.53
2018-11-06T04:41:54.878Z,12.88
2018-11-06T04:47:13.373Z,12.77
2018-11-06T04:52:31.882Z,13.30
2018-11-06T04:57:50.374Z,13.63
2018-11-06T05:03:08.870Z,13.60
2018-11-06T05:08:27.649Z,13.07
2018-11-06T05:13:46.174Z,13.30
2018-11-06T05:19:04.695Z,13.23
2018-11-06T05:24:23.208Z,12.57
2018-11-06T05:29:41.691Z,11.20
2018-11-06T05:35:00.382Z,12.77
2018-11-06T05:40:30.055Z,10.45
2018-11-06T05:45:48.575Z,11.53
2018-11-06T05:51:07.099Z,11.37
2018-11-06T05:56:26.038Z,11.57
2018-11-06T06:01:44.533Z,12.33
2018-11-06T06:07:03.111Z,11.20
2018-11-06T06:12:21.697Z,11.43
2018-11-06T06:17:40.202Z,10.67
2018-11-06T06:22:58.782Z,11.10
2018-11-06T06:28:17.331Z,9.97
2018-11-06T06:33:36.010Z,9.37
2018-11-06T06:38:54.517Z,11.03
2018-11-06T06:44:13.006Z,9.00
2018-11-06T06:49:31.670Z,9.87
2018-11-06T06:54:50.236Z,9.63
2018-11-06T07:00:10.957Z,8.63
2018-11-06T07:05:29.518Z,9.30
2018-11-06T07:10:48.177Z,9.00
2018-11-06T07:16:07.323Z,9.23
2018-11-06T07:21:25.828Z,8.20
2018-11-06T07:26:44.314Z,7.63
2018-11-06T07:32:02.830Z,6.67
2018-11-06T07:37:21.351Z,6.87
2018-11-06T07:42:40.050Z,7.07
2018-11-06T07:47:58.571Z,7.23
2018-11-06T07:53:17.116Z,6.58
2018-11-06T07:58:35.622Z,5.77
2018-11-06T08:03:54.282Z,5.47
2018-11-06T08:09:12.860Z,7.70
2018-11-06T08:14:31.469Z,6.63
2018-11-06T08:19:50.605Z,6.10
2018-11-06T08:25:10.738Z,6.13
2018-11-06T08:30:29.284Z,6.40
2018-11-06T08:35:47.746Z,6.50
2018-11-06T08:41:06.393Z,6.73
2018-11-06T08:46:24.891Z,6.47
2018-11-06T08:51:43.462Z,6.00
2018-11-06T08:57:01.995Z,5.97
2018-11-06T09:02:20.575Z,5.97
2018-11-06T09:07:39.344Z,5.30
2018-11-06T09:12:57.835Z,4.93
2018-11-06T09:18:16.366Z,5.03
2018-11-06T09:23:35.161Z,5.10
2018-11-06T09:28:53.913Z,4.80
2018-11-06T09:34:12.553Z,4.43
2018-11-06T09:39:31.109Z,4.83
2018-11-06T09:44:49.606Z,5.37
2018-11-06T09:50:10.735Z,4.10
2018-11-06T09:55:29.233Z,4.47
2018-11-06T10:00:47.796Z,4.67
2018-11-06T10:06:06.792Z,4.30
2018-11-06T10:11:25.528Z,4.70
2018-11-06T10:16:44.009Z,4.07
2018-11-06T10:22:02.557Z,4.20
2018-11-06T10:27:21.053Z,4.00
2018-11-06T10:32:39.708Z,3.10
2018-11-06T10:37:58.275Z,3.60
2018-11-06T10:43:16.727Z,3.70
2018-11-06T10:48:35.203Z,3.77
2018-11-06T10:53:53.717Z,3.07
2018-11-06T10:59:12.283Z,2.80
2018-11-06T11:04:31.413Z,2.67
2018-11-06T11:09:49.977Z,2.43
2018-11-06T11:15:08.577Z,2.90
2018-11-06T11:20:27.151Z,1.98
2018-11-06T11:25:45.631Z,2.33
2018-11-06T11:31:04.243Z,2.07
2018-11-06T11:36:22.741Z,2.40
2018-11-06T11:41:41.273Z,2.37
2018-11-06T11:46:59.788Z,2.27
2018-11-06T11:52:18.501Z,2.40
2018-11-06T11:57:37.043Z,2.63
2018-11-06T12:02:55.881Z,2.40
2018-11-06T12:08:14.499Z,2.23
2018-11-06T12:13:33.123Z,2.20
2018-11-06T12:18:51.657Z,2.50
2018-11-06T12:24:10.247Z,2.20
2018-11-06T12:29:28.710Z,2.60
2018-11-06T12:34:47.266Z,2.40
2018-11-06T12:40:07.150Z,2.50
2018-11-06T12:45:26.688Z,2.43
2018-11-06T12:50:45.206Z,2.70
2018-11-06T12:56:04.073Z,2.50
2018-11-06T13:01:22.555Z,2.83
2018-11-06T13:06:41.144Z,2.80
2018-11-06T13:12:00.056Z,2.53
2018-11-06T13:17:18.600Z,2.43
2018-11-06T13:22:37.321Z,2.70
2018-11-06T13:27:56.220Z,2.20
2018-11-06T13:33:15.232Z,2.23
2018-11-06T13:38:35.512Z,2.27
2018-11-06T13:43:55.094Z,2.63
2018-11-06T13:49:14.200Z,2.13
2018-11-06T13:54:33.342Z,2.47
2018-11-06T13:59:52.088Z,2.20
2018-11-06T14:05:11.035Z,2.30
2018-11-06T14:10:29.986Z,2.30
2018-11-06T14:15:48.522Z,2.17
2018-11-06T14:21:10.812Z,2.10
2018-11-06T14:27:11.361Z,2.20
2018-11-06T14:32:43.690Z,2.27
2018-11-06T14:38:02.258Z,2.30
2018-11-06T14:43:21.129Z,2.20
2018-11-06T14:48:40.060Z,2.30
2018-11-06T14:53:58.541Z,3.43
2018-11-06T14:59:17.297Z,2.50
2018-11-06T15:04:35.947Z,2.57
2018-11-06T15:09:54.949Z,2.30
2018-11-06T15:15:14.849Z,1.98
2018-11-06T15:20:33.672Z,2.30
2018-11-06T15:25:52.214Z,2.40
2018-11-06T15:31:11.032Z,2.67
2018-11-06T15:36:29.612Z,2.07
2018-11-06T15:41:48.251Z,2.10
2018-11-06T15:47:06.742Z,2.20
2018-11-06T15:52:25.462Z,2.07
2018-11-06T15:57:43.967Z,2.20
2018-11-06T16:03:02.516Z,1.90
2018-11-06T16:08:21.331Z,2.00
2018-11-06T16:13:39.818Z,2.50
2018-11-06T16:18:58.359Z,2.27
2018-11-06T16:24:16.877Z,1.90
2018-11-06T16:29:35.545Z,2.20
2018-11-06T16:34:54.046Z,2.40
2018-11-06T16:40:13.109Z,1.95
2018-11-06T16:45:31.770Z,1.83
2018-11-06T16:50:50.306Z,1.90
2018-11-06T16:56:08.976Z,2.17
2018-11-06T17:01:27.636Z,2.43
2018-11-06T17:06:50.115Z,2.30
2018-11-06T17:12:08.640Z,2.43
2018-11-06T17:17:27.849Z,3.13
2018-11-06T17:22:46.367Z,2.50
2018-11-06T17:28:05.044Z,2.60
2018-11-06T17:33:24.000Z,1.90
2018-11-06T17:38:43.507Z,2.23
2018-11-06T17:44:02.097Z,2.17
2018-11-06T17:49:20.647Z,2.70
2018-11-06T17:54:39.215Z,2.20
2018-11-06T17:59:58.023Z,2.50
2018-11-06T18:05:17.613Z,3.00
2018-11-06T18:10:36.274Z,2.97
2018-11-06T18:15:54.731Z,2.97
2018-11-06T18:21:13.558Z,3.20
2018-11-06T18:26:32.047Z,3.73
2018-11-06T18:31:50.692Z,3.50
2018-11-06T18:37:09.160Z,3.53
2018-11-06T18:42:27.947Z,3.30
2018-11-06T18:47:46.799Z,3.80
2018-11-06T18:53:05.391Z,3.77
2018-11-06T18:58:23.928Z,4.33
2018-11-06T19:03:45.432Z,4.50
2018-11-06T19:09:05.224Z,4.20
2018-11-06T19:14:23.762Z,4.53
2018-11-06T19:19:42.327Z,4.70
2018-11-06T19:25:00.819Z,4.87
2018-11-06T19:30:20.182Z,4.85
2018-11-06T19:35:38.709Z,5.27
2018-11-06T19:40:57.600Z,6.17
2018-11-06T19:46:16.202Z,5.37
2018-11-06T19:51:36.782Z,5.97
2018-11-06T19:56:55.414Z,5.90
2018-11-06T20:02:13.938Z,6.20
2018-11-06T20:07:32.510Z,5.90
2018-11-06T20:12:52.238Z,5.83
2018-11-06T20:18:10.777Z,6.37
2018-11-06T20:23:30.191Z,6.30
2018-11-06T20:28:49.033Z,5.97
2018-11-06T20:34:07.820Z,6.60
2018-11-06T20:39:26.483Z,6.27
2018-11-06T20:44:45.021Z,6.70
2018-11-06T20:50:03.657Z,6.97
2018-11-06T20:55:22.560Z,7.23
2018-11-06T21:00:41.187Z,6.57
2018-11-06T21:05:59.886Z,6.67
2018-11-06T21:11:18.509Z,6.87
2018-11-06T21:16:37.099Z,6.63
2018-11-06T21:21:55.729Z,6.43
2018-11-06T21:27:14.687Z,6.80
2018-11-06T21:32:33.231Z,6.93
2018-11-06T21:37:51.760Z,6.33
2018-11-06T21:43:10.816Z,7.10
2018-11-06T21:48:29.454Z,7.17
2018-11-06T21:53:47.970Z,6.62
2018-11-06T21:59:10.695Z,7.63
2018-11-06T22:04:35.614Z,7.97
2018-11-06T22:09:54.260Z,8.00
2018-11-06T22:15:14.235Z,7.28
2018-11-06T22:20:33.015Z,7.47
2018-11-06T22:25:51.525Z,7.50
2018-11-06T22:31:10.025Z,7.53
2018-11-06T22:36:28.904Z,7.17
2018-11-06T22:41:47.397Z,7.37
2018-11-06T22:47:07.372Z,7.12
2018-11-06T22:52:25.960Z,7.80
2018-11-06T22:57:44.747Z,7.70
2018-11-06T23:03:07.355Z,7.87
2018-11-06T23:08:27.158Z,8.40
2018-11-06T23:13:45.661Z,8.73
2018-11-06T23:19:04.759Z,9.03
2018-11-06T23:24:23.271Z,8.70
2018-11-06T23:29:41.835Z,7.60
2018-11-06T23:35:00.362Z,7.33
2018-11-06T23:40:18.853Z,6.27
2018-11-06T23:45:37.398Z,7.40
2018-11-06T23:50:55.887Z,8.07
2018-11-06T23:56:14.393Z,8.27
